sensor_id;sensor_type;location;lat;lon;timestamp;pressure;altitude;pressure_sealevel;temperature;humidity
17260;BME280;8746;49.230;9.220;2023-04-07T00:00:12;100003.38;;;6.03;100.00
17260;BME280;8746;49.230;9.220;2023-04-07T00:02:37;99999.13;;;5.96;100.00
17260;BME280;8746;49.230;9.220;2023-04-07T00:05:02;100000.09;;;5.91;100.00
17260;BME280;8746;49.230;9.220;2023-04-07T00:07:28;99998.38;;;5.89;100.00
17260;BME280;8746;49.230;9.220;2023-04-07T00:09:53;99996.56;;;5.92;100.00
17260;BME280;8746;49.230;9.220;2023-04-07T00:12:18;100000.03;;;5.93;100.00
17260;BME280;8746;49.230;9.220;2023-04-07T00:14:44;100000.84;;;5.97;100.00
17260;BME280;8746;49.230;9.220;2023-04-07T00:17:10;99995.91;;;5.83;100.00
17260;BME280;8746;49.230;9.220;2023-04-07T00:19:35;99995.81;;;5.87;100.00
17260;BME280;8746;49.230;9.220;2023-04-07T00:22:00;99988.84;;;5.86;100.00
17260;BME280;8746;49.230;9.220;2023-04-07T00:24:26;99987.03;;;5.88;100.00
17260;BME280;8746;49.230;9.220;2023-04-07T00:26:51;99983.56;;;5.88;100.00
17260;BME280;8746;49.230;9.220;2023-04-07T00:29:16;99977.50;;;5.86;100.00
17260;BME280;8746;49.230;9.220;2023-04-07T00:31:42;99967.91;;;5.86;100.00
17260;BME280;8746;49.230;9.220;2023-04-07T00:34:07;99969.69;;;5.84;100.00
17260;BME280;8746;49.230;9.220;2023-04-07T00:36:32;99956.59;;;5.84;100.00
17260;BME280;8746;49.230;9.220;2023-04-07T00:38:58;99960.28;;;5.74;100.00
17260;BME280;8746;49.230;9.220;2023-04-07T00:41:23;99958.53;;;5.74;100.00
17260;BME280;8746;49.230;9.220;2023-04-07T00:43:50;99946.31;;;5.73;100.00
17260;BME280;8746;49.230;9.220;2023-04-07T00:46:16;99948.97;;;5.72;100.00
17260;BME280;8746;49.230;9.220;2023-04-07T00:48:42;99946.41;;;5.69;100.00
17260;BME280;8746;49.230;9.220;2023-04-07T00:51:08;99947.25;;;5.71;100.00
17260;BME280;8746;49.230;9.220;2023-04-07T00:53:34;99945.59;;;5.67;100.00
17260;BME280;8746;49.230;9.220;2023-04-07T00:55:59;99947.34;;;5.68;100.00
17260;BME280;8746;49.230;9.220;2023-04-07T00:58:24;99938.44;;;5.75;100.00
17260;BME280;8746;49.230;9.220;2023-04-07T01:01:14;99932.44;;;5.70;100.00
17260;BME280;8746;49.230;9.220;2023-04-07T01:03:53;99931.50;;;5.72;100.00
17260;BME280;8746;49.230;9.220;2023-04-07T01:06:24;99932.25;;;5.79;100.00
17260;BME280;8746;49.230;9.220;2023-04-07T01:09:17;99926.31;;;5.71;100.00
17260;BME280;8746;49.230;9.220;2023-04-07T01:11:43;99919.22;;;5.76;100.00
17260;BME280;8746;49.230;9.220;2023-04-07T01:14:14;99924.31;;;5.82;100.00
17260;BME280;8746;49.230;9.220;2023-04-07T01:16:45;99919.22;;;5.77;100.00
17260;BME280;8746;49.230;9.220;2023-04-07T01:19:32;99908.50;;;5.88;100.00
17260;BME280;8746;49.230;9.220;2023-04-07T01:21:59;99912.03;;;5.87;100.00
17260;BME280;8746;49.230;9.220;2023-04-07T01:27:42;99902.44;;;5.85;100.00
17260;BME280;8746;49.230;9.220;2023-04-07T01:30:14;99902.25;;;5.94;100.00
17260;BME280;8746;49.230;9.220;2023-04-07T01:32:44;99903.47;;;5.79;100.00
17260;BME280;8746;49.230;9.220;2023-04-07T01:35:14;99901.69;;;5.81;100.00
17260;BME280;8746;49.230;9.220;2023-04-07T01:37:41;99897.31;;;5.82;100.00
17260;BME280;8746;49.230;9.220;2023-04-07T01:40:08;99904.25;;;5.83;100.00
17260;BME280;8746;49.230;9.220;2023-04-07T01:42:34;99895.53;;;5.82;100.00
17260;BME280;8746;49.230;9.220;2023-04-07T01:45:01;99893.78;;;5.83;100.00
17260;BME280;8746;49.230;9.220;2023-04-07T01:47:28;99897.16;;;5.88;100.00
17260;BME280;8746;49.230;9.220;2023-04-07T01:49:57;99889.34;;;5.86;100.00
17260;BME280;8746;49.230;9.220;2023-04-07T01:52:25;99891.31;;;5.75;100.00
17260;BME280;8746;49.230;9.220;2023-04-07T01:54:51;99889.50;;;5.80;100.00
17260;BME280;8746;49.230;9.220;2023-04-07T01:57:17;99885.91;;;5.84;100.00
17260;BME280;8746;49.230;9.220;2023-04-07T01:59:42;99882.69;;;5.71;100.00
17260;BME280;8746;49.230;9.220;2023-04-07T02:02:07;99878.28;;;5.73;100.00
17260;BME280;8746;49.230;9.220;2023-04-07T02:04:54;99886.16;;;5.72;100.00
17260;BME280;8746;49.230;9.220;2023-04-07T02:07:54;99875.03;;;5.62;100.00
17260;BME280;8746;49.230;9.220;2023-04-07T02:10:23;99880.34;;;5.57;100.00
17260;BME280;8746;49.230;9.220;2023-04-07T02:12:50;99873.13;;;5.70;100.00
17260;BME280;8746;49.230;9.220;2023-04-07T02:15:17;99863.44;;;5.74;100.00
17260;BME280;8746;49.230;9.220;2023-04-07T02:17:47;99862.66;;;5.69;100.00
17260;BME280;8746;49.230;9.220;2023-04-07T02:20:14;99861.84;;;5.67;100.00
17260;BME280;8746;49.230;9.220;2023-04-07T02:22:41;99857.63;;;5.59;100.00
17260;BME280;8746;49.230;9.220;2023-04-07T02:25:34;99869.69;;;5.67;100.00
17260;BME280;8746;49.230;9.220;2023-04-07T02:28:02;99867.00;;;5.70;100.00
17260;BME280;8746;49.230;9.220;2023-04-07T02:30:28;99866.94;;;5.73;100.00
17260;BME280;8746;49.230;9.220;2023-04-07T02:32:53;99863.50;;;5.71;100.00
17260;BME280;8746;49.230;9.220;2023-04-07T02:35:19;99859.91;;;5.75;100.00
17260;BME280;8746;49.230;9.220;2023-04-07T02:37:45;99858.06;;;5.80;100.00
17260;BME280;8746;49.230;9.220;2023-04-07T02:40:11;99846.72;;;5.81;100.00
17260;BME280;8746;49.230;9.220;2023-04-07T02:42:37;99852.66;;;5.88;100.00
17260;BME280;8746;49.230;9.220;2023-04-07T02:45:04;99850.88;;;5.90;100.00
17260;BME280;8746;49.230;9.220;2023-04-07T02:47:30;99852.00;;;5.78;100.00
17260;BME280;8746;49.230;9.220;2023-04-07T02:49:55;99844.19;;;5.75;100.00
17260;BME280;8746;49.230;9.220;2023-04-07T02:52:20;99841.56;;;5.76;100.00
17260;BME280;8746;49.230;9.220;2023-04-07T02:54:46;99842.50;;;5.74;100.00
17260;BME280;8746;49.230;9.220;2023-04-07T02:57:11;99854.75;;;5.72;100.00
17260;BME280;8746;49.230;9.220;2023-04-07T02:59:38;99846.94;;;5.70;100.00
17260;BME280;8746;49.230;9.220;2023-04-07T03:02:03;99832.16;;;5.68;100.00
17260;BME280;8746;49.230;9.220;2023-04-07T03:04:28;99832.16;;;5.68;100.00
17260;BME280;8746;49.230;9.220;2023-04-07T03:06:54;99835.81;;;5.60;100.00
17260;BME280;8746;49.230;9.220;2023-04-07T03:09:20;99829.47;;;5.71;100.00
17260;BME280;8746;49.230;9.220;2023-04-07T03:11:46;99838.13;;;5.74;100.00
17260;BME280;8746;49.230;9.220;2023-04-07T03:14:11;99826.13;;;5.64;100.00
17260;BME280;8746;49.230;9.220;2023-04-07T03:16:36;99823.44;;;5.67;100.00
17260;BME280;8746;49.230;9.220;2023-04-07T03:19:02;99819.94;;;5.68;100.00
17260;BME280;8746;49.230;9.220;2023-04-07T03:21:27;99818.28;;;5.62;100.00
17260;BME280;8746;49.230;9.220;2023-04-07T03:23:53;99824.47;;;5.60;100.00
17260;BME280;8746;49.230;9.220;2023-04-07T03:26:19;99826.94;;;5.68;100.00
17260;BME280;8746;49.230;9.220;2023-04-07T03:28:45;99825.06;;;5.73;100.00
17260;BME280;8746;49.230;9.220;2023-04-07T03:31:11;99816.38;;;5.71;100.00
17260;BME280;8746;49.230;9.220;2023-04-07T03:33:36;99820.69;;;5.73;100.00
17260;BME280;8746;49.230;9.220;2023-04-07T03:36:01;99818.03;;;5.75;100.00
17260;BME280;8746;49.230;9.220;2023-04-07T03:38:27;99812.69;;;5.80;100.00
17260;BME280;8746;49.230;9.220;2023-04-07T03:40:53;99817.91;;;5.81;100.00
17260;BME280;8746;49.230;9.220;2023-04-07T03:43:18;99812.59;;;5.84;100.00
17260;BME280;8746;49.230;9.220;2023-04-07T03:45:43;99810.88;;;5.83;100.00
17260;BME280;8746;49.230;9.220;2023-04-07T03:48:09;99816.25;;;5.77;100.00
17260;BME280;8746;49.230;9.220;2023-04-07T03:50:37;99805.81;;;5.75;100.00
17260;BME280;8746;49.230;9.220;2023-04-07T03:53:02;99809.41;;;5.70;100.00
17260;BME280;8746;49.230;9.220;2023-04-07T03:55:28;99804.94;;;5.76;100.00
17260;BME280;8746;49.230;9.220;2023-04-07T03:57:53;99813.63;;;5.77;100.00
17260;BME280;8746;49.230;9.220;2023-04-07T04:00:18;99810.16;;;5.75;100.00
17260;BME280;8746;49.230;9.220;2023-04-07T04:02:44;99810.94;;;5.80;100.00
17260;BME280;8746;49.230;9.220;2023-04-07T04:05:09;99812.69;;;5.81;100.00
17260;BME280;8746;49.230;9.220;2023-04-07T04:07:35;99797.88;;;5.78;100.00
17260;BME280;8746;49.230;9.220;2023-04-07T04:10:00;99802.59;;;5.62;100.00
17260;BME280;8746;49.230;9.220;2023-04-07T04:12:25;99806.19;;;5.58;100.00
17260;BME280;8746;49.230;9.220;2023-04-07T04:14:51;99805.34;;;5.58;100.00
17260;BME280;8746;49.230;9.220;2023-04-07T04:17:16;99804.53;;;5.54;100.00
17260;BME280;8746;49.230;9.220;2023-04-07T04:19:42;99803.75;;;5.51;100.00
17260;BME280;8746;49.230;9.220;2023-04-07T04:22:07;99810.81;;;5.47;100.00
17260;BME280;8746;49.230;9.220;2023-04-07T04:24:32;99814.44;;;5.40;100.00
17260;BME280;8746;49.230;9.220;2023-04-07T04:26:57;99812.59;;;5.45;100.00
17260;BME280;8746;49.230;9.220;2023-04-07T04:29:23;99806.38;;;5.49;100.00
17260;BME280;8746;49.230;9.220;2023-04-07T04:31:48;99808.38;;;5.38;100.00
17260;BME280;8746;49.230;9.220;2023-04-07T04:34:13;99811.81;;;5.40;100.00
17260;BME280;8746;49.230;9.220;2023-04-07T04:36:39;99808.38;;;5.38;100.00
17260;BME280;8746;49.230;9.220;2023-04-07T04:39:05;99812.75;;;5.36;100.00
17260;BME280;8746;49.230;9.220;2023-04-07T04:41:30;99812.75;;;5.37;100.00
17260;BME280;8746;49.230;9.220;2023-04-07T04:43:56;99812.84;;;5.33;100.00
17260;BME280;8746;49.230;9.220;2023-04-07T04:46:21;99806.84;;;5.27;100.00
17260;BME280;8746;49.230;9.220;2023-04-07T04:48:46;99811.06;;;5.33;100.00
17260;BME280;8746;49.230;9.220;2023-04-07T04:51:12;99809.25;;;5.38;100.00
17260;BME280;8746;49.230;9.220;2023-04-07T04:53:37;99818.69;;;5.44;100.00
17260;BME280;8746;49.230;9.220;2023-04-07T04:56:03;99808.09;;;5.50;100.00
17260;BME280;8746;49.230;9.220;2023-04-07T04:58:28;99811.81;;;5.40;100.00
17260;BME280;8746;49.230;9.220;2023-04-07T05:00:53;99810.09;;;5.39;100.00
17260;BME280;8746;49.230;9.220;2023-04-07T05:03:23;99807.53;;;5.36;100.00
17260;BME280;8746;49.230;9.220;2023-04-07T05:05:50;99805.75;;;5.38;100.00
17260;BME280;8746;49.230;9.220;2023-04-07T05:08:16;99803.22;;;5.35;100.00
17260;BME280;8746;49.230;9.220;2023-04-07T05:10:41;99797.16;;;5.33;100.00
17260;BME280;8746;49.230;9.220;2023-04-07T05:13:06;99803.97;;;5.40;100.00
17260;BME280;8746;49.230;9.220;2023-04-07T05:15:32;99809.97;;;5.45;100.00
17260;BME280;8746;49.230;9.220;2023-04-07T05:17:57;99818.66;;;5.47;100.00
17260;BME280;8746;49.230;9.220;2023-04-07T05:20:22;99801.94;;;5.54;100.00
17260;BME280;8746;49.230;9.220;2023-04-07T05:22:48;99802.63;;;5.61;100.00
17260;BME280;8746;49.230;9.220;2023-04-07T05:25:13;99805.38;;;5.55;100.00
17260;BME280;8746;49.230;9.220;2023-04-07T05:27:38;99801.09;;;5.52;100.00
17260;BME280;8746;49.230;9.220;2023-04-07T05:30:04;99801.22;;;5.46;100.00
17260;BME280;8746;49.230;9.220;2023-04-07T05:32:30;99794.25;;;5.45;100.00
17260;BME280;8746;49.230;9.220;2023-04-07T05:34:55;99801.13;;;5.49;100.00
17260;BME280;8746;49.230;9.220;2023-04-07T05:37:21;99804.53;;;5.54;100.00
17260;BME280;8746;49.230;9.220;2023-04-07T05:39:46;99799.63;;;5.39;100.00
17260;BME280;8746;49.230;9.220;2023-04-07T05:42:11;99804.78;;;5.42;100.00
17260;BME280;8746;49.230;9.220;2023-04-07T05:44:37;99806.50;;;5.43;100.00
17260;BME280;8746;49.230;9.220;2023-04-07T05:47:02;99807.44;;;5.40;100.00
17260;BME280;8746;49.230;9.220;2023-04-07T05:49:32;99811.78;;;5.41;100.00
17260;BME280;8746;49.230;9.220;2023-04-07T05:51:58;99814.31;;;5.46;100.00
17260;BME280;8746;49.230;9.220;2023-04-07T05:54:23;99809.78;;;5.54;100.00
17260;BME280;8746;49.230;9.220;2023-04-07T05:56:48;99815.63;;;5.66;100.00
17260;BME280;8746;49.230;9.220;2023-04-07T05:59:14;99809.13;;;5.44;100.00
17260;BME280;8746;49.230;9.220;2023-04-07T06:01:40;99810.81;;;5.45;100.00
17260;BME280;8746;49.230;9.220;2023-04-07T06:04:06;99815.16;;;5.48;100.00
17260;BME280;8746;49.230;9.220;2023-04-07T06:06:31;99811.66;;;5.48;100.00
17260;BME280;8746;49.230;9.220;2023-04-07T06:08:57;99804.69;;;5.48;100.00
17260;BME280;8746;49.230;9.220;2023-04-07T06:11:22;99807.97;;;5.56;100.00
17260;BME280;8746;49.230;9.220;2023-04-07T06:13:47;99802.81;;;5.53;100.00
17260;BME280;8746;49.230;9.220;2023-04-07T06:16:13;99802.81;;;5.53;100.00
17260;BME280;8746;49.230;9.220;2023-04-07T06:18:38;99799.09;;;5.64;100.00
17260;BME280;8746;49.230;9.220;2023-04-07T06:21:04;99797.59;;;5.53;100.00
17260;BME280;8746;49.230;9.220;2023-04-07T06:23:29;99808.75;;;5.60;100.00
17260;BME280;8746;49.230;9.220;2023-04-07T06:25:55;99811.16;;;5.71;100.00
17260;BME280;8746;49.230;9.220;2023-04-07T06:28:20;99812.03;;;5.71;100.00
17260;BME280;8746;49.230;9.220;2023-04-07T06:30:45;99803.09;;;5.78;100.00
17260;BME280;8746;49.230;9.220;2023-04-07T06:33:11;99809.09;;;5.85;100.00
17260;BME280;8746;49.230;9.220;2023-04-07T06:35:38;99808.28;;;5.82;100.00
17260;BME280;8746;49.230;9.220;2023-04-07T06:38:03;99806.31;;;5.91;100.00
17260;BME280;8746;49.230;9.220;2023-04-07T06:40:29;99799.16;;;5.98;100.00
17260;BME280;8746;49.230;9.220;2023-04-07T06:42:54;99797.47;;;5.97;100.00
17260;BME280;8746;49.230;9.220;2023-04-07T06:45:20;99807.31;;;5.87;100.00
17260;BME280;8746;49.230;9.220;2023-04-07T06:47:45;99803.56;;;5.98;100.00
17260;BME280;8746;49.230;9.220;2023-04-07T06:50:11;99799.63;;;6.17;100.00
17260;BME280;8746;49.230;9.220;2023-04-07T06:52:36;99803.81;;;6.24;100.00
17260;BME280;8746;49.230;9.220;2023-04-07T06:55:02;99800.63;;;6.48;100.00
17260;BME280;8746;49.230;9.220;2023-04-07T06:57:27;99806.94;;;6.73;100.00
17260;BME280;8746;49.230;9.220;2023-04-07T06:59:53;99803.47;;;6.73;100.00
17260;BME280;8746;49.230;9.220;2023-04-07T07:02:18;99807.88;;;7.04;100.00
17260;BME280;8746;49.230;9.220;2023-04-07T07:04:43;99815.09;;;6.96;100.00
17260;BME280;8746;49.230;9.220;2023-04-07T07:07:09;99809.50;;;7.08;100.00
17260;BME280;8746;49.230;9.220;2023-04-07T07:09:34;99805.31;;;7.01;100.00
17260;BME280;8746;49.230;9.220;2023-04-07T07:12:00;99803.13;;;6.85;100.00
17260;BME280;8746;49.230;9.220;2023-04-07T07:14:26;99798.56;;;6.94;100.00
17260;BME280;8746;49.230;9.220;2023-04-07T07:16:51;99804.34;;;7.05;100.00
17260;BME280;8746;49.230;9.220;2023-04-07T07:19:17;99805.38;;;7.31;100.00
17260;BME280;8746;49.230;9.220;2023-04-07T07:21:42;99802.88;;;7.26;100.00
17260;BME280;8746;49.230;9.220;2023-04-07T07:24:07;99802.50;;;7.68;100.00
17260;BME280;8746;49.230;9.220;2023-04-07T07:26:33;99804.28;;;7.38;100.00
17260;BME280;8746;49.230;9.220;2023-04-07T07:28:58;99806.63;;;7.47;100.00
17260;BME280;8746;49.230;9.220;2023-04-07T07:31:23;99812.09;;;7.40;100.00
17260;BME280;8746;49.230;9.220;2023-04-07T07:33:49;99802.84;;;7.58;100.00
17260;BME280;8746;49.230;9.220;2023-04-07T07:36:15;99804.56;;;7.87;100.00
17260;BME280;8746;49.230;9.220;2023-04-07T07:38:41;99802.78;;;7.88;100.00
17260;BME280;8746;49.230;9.220;2023-04-07T07:41:06;99803.72;;;8.13;100.00
17260;BME280;8746;49.230;9.220;2023-04-07T07:43:32;99810.22;;;7.73;100.00
17260;BME280;8746;49.230;9.220;2023-04-07T07:45:57;99805.72;;;7.78;100.00
17260;BME280;8746;49.230;9.220;2023-04-07T07:48:23;99805.78;;;7.75;100.00
17260;BME280;8746;49.230;9.220;2023-04-07T07:50:49;99809.19;;;7.79;100.00
17260;BME280;8746;49.230;9.220;2023-04-07T07:53:16;99810.47;;;7.94;100.00
17260;BME280;8746;49.230;9.220;2023-04-07T07:55:41;99817.56;;;7.92;100.00
17260;BME280;8746;49.230;9.220;2023-04-07T07:58:06;99811.22;;;7.97;100.00
17260;BME280;8746;49.230;9.220;2023-04-07T08:00:32;99806.50;;;8.09;100.00
17260;BME280;8746;49.230;9.220;2023-04-07T08:02:57;99812.84;;;8.30;100.00
17260;BME280;8746;49.230;9.220;2023-04-07T08:05:22;99811.47;;;8.45;99.41
17260;BME280;8746;49.230;9.220;2023-04-07T08:07:48;99807.50;;;8.31;98.09
17260;BME280;8746;49.230;9.220;2023-04-07T08:10:13;99810.59;;;8.44;97.30
17260;BME280;8746;49.230;9.220;2023-04-07T08:12:39;99809.69;;;8.47;94.70
17260;BME280;8746;49.230;9.220;2023-04-07T08:15:05;99806.78;;;8.55;93.81
17260;BME280;8746;49.230;9.220;2023-04-07T08:17:33;99813.06;;;8.76;94.02
17260;BME280;8746;49.230;9.220;2023-04-07T08:19:59;99810.16;;;8.58;91.46
17260;BME280;8746;49.230;9.220;2023-04-07T08:22:25;99814.22;;;8.42;92.00
17260;BME280;8746;49.230;9.220;2023-04-07T08:24:50;99812.50;;;8.66;92.97
17260;BME280;8746;49.230;9.220;2023-04-07T08:27:16;99817.97;;;8.61;90.70
17260;BME280;8746;49.230;9.220;2023-04-07T08:29:41;99819.06;;;8.54;90.08
17260;BME280;8746;49.230;9.220;2023-04-07T08:32:06;99810.63;;;8.71;92.00
17260;BME280;8746;49.230;9.220;2023-04-07T08:34:32;99822.09;;;8.94;92.34
17260;BME280;8746;49.230;9.220;2023-04-07T08:36:57;99815.16;;;9.17;89.18
17260;BME280;8746;49.230;9.220;2023-04-07T08:39:22;99820.19;;;9.23;88.58
17260;BME280;8746;49.230;9.220;2023-04-07T08:41:50;99819.22;;;9.25;86.20
17260;BME280;8746;49.230;9.220;2023-04-07T08:44:16;99815.69;;;9.72;86.64
17260;BME280;8746;49.230;9.220;2023-04-07T08:46:42;99819.69;;;10.05;84.34
17260;BME280;8746;49.230;9.220;2023-04-07T08:49:10;99817.59;;;10.35;82.37
17260;BME280;8746;49.230;9.220;2023-04-07T08:51:43;99816.13;;;10.28;82.89
17260;BME280;8746;49.230;9.220;2023-04-07T08:54:10;99815.75;;;10.37;81.92
17260;BME280;8746;49.230;9.220;2023-04-07T08:56:37;99821.47;;;10.26;82.12
17260;BME280;8746;49.230;9.220;2023-04-07T08:59:05;99823.13;;;10.29;82.21
17260;BME280;8746;49.230;9.220;2023-04-07T09:01:33;99827.03;;;10.19;83.45
17260;BME280;8746;49.230;9.220;2023-04-07T09:04:01;99829.84;;;10.14;84.93
17260;BME280;8746;49.230;9.220;2023-04-07T09:06:29;99834.22;;;9.93;85.82
17260;BME280;8746;49.230;9.220;2023-04-07T09:08:59;99846.41;;;9.95;85.08
17260;BME280;8746;49.230;9.220;2023-04-07T09:11:26;99835.84;;;10.18;85.73
17260;BME280;8746;49.230;9.220;2023-04-07T09:13:52;99833.00;;;10.24;84.68
17260;BME280;8746;49.230;9.220;2023-04-07T09:16:17;99838.03;;;10.30;85.48
17260;BME280;8746;49.230;9.220;2023-04-07T09:18:43;99843.78;;;10.18;84.12
17260;BME280;8746;49.230;9.220;2023-04-07T09:21:08;99842.59;;;10.25;81.68
17260;BME280;8746;49.230;9.220;2023-04-07T09:23:37;99834.22;;;10.37;80.08
17260;BME280;8746;49.230;9.220;2023-04-07T09:28:44;99852.91;;;10.31;83.35
17260;BME280;8746;49.230;9.220;2023-04-07T09:31:10;99848.19;;;10.17;81.31
17260;BME280;8746;49.230;9.220;2023-04-07T09:33:36;99853.03;;;10.28;80.64
17260;BME280;8746;49.230;9.220;2023-04-07T09:36:02;99845.97;;;10.51;79.78
17260;BME280;8746;49.230;9.220;2023-04-07T09:38:32;99845.88;;;10.54;79.14
17260;BME280;8746;49.230;9.220;2023-04-07T09:41:15;99850.81;;;10.62;77.93
17260;BME280;8746;49.230;9.220;2023-04-07T09:43:44;99848.50;;;10.54;77.97
17260;BME280;8746;49.230;9.220;2023-04-07T09:48:35;99849.25;;;10.99;78.38
17260;BME280;8746;49.230;9.220;2023-04-07T09:51:11;99845.41;;;10.65;75.99
17260;BME280;8746;49.230;9.220;2023-04-07T09:53:50;99841.34;;;10.78;77.53
17260;BME280;8746;49.230;9.220;2023-04-07T09:56:18;99835.59;;;10.89;75.58
17260;BME280;8746;49.230;9.220;2023-04-07T09:58:45;99834.34;;;10.98;76.16
17260;BME280;8746;49.230;9.220;2023-04-07T10:01:12;99829.44;;;10.68;72.62
17260;BME280;8746;49.230;9.220;2023-04-07T10:03:38;99827.59;;;10.70;73.43
17260;BME280;8746;49.230;9.220;2023-04-07T10:06:04;99826.81;;;10.88;73.27
17260;BME280;8746;49.230;9.220;2023-04-07T10:08:35;99834.63;;;11.31;72.19
17260;BME280;8746;49.230;9.220;2023-04-07T10:11:02;99833.22;;;11.43;70.88
17260;BME280;8746;49.230;9.220;2023-04-07T10:13:33;99830.28;;;11.49;69.81
17260;BME280;8746;49.230;9.220;2023-04-07T10:16:02;99831.91;;;11.90;71.05
17260;BME280;8746;49.230;9.220;2023-04-07T10:18:29;99833.88;;;12.06;73.40
17260;BME280;8746;49.230;9.220;2023-04-07T10:20:56;99827.25;;;12.51;70.31
17260;BME280;8746;49.230;9.220;2023-04-07T10:23:35;99827.88;;;13.42;71.52
17260;BME280;8746;49.230;9.220;2023-04-07T10:26:05;99833.25;;;12.18;71.66
17260;BME280;8746;49.230;9.220;2023-04-07T10:28:32;99831.13;;;12.07;72.30
17260;BME280;8746;49.230;9.220;2023-04-07T10:31:02;99833.72;;;12.09;73.15
17260;BME280;8746;49.230;9.220;2023-04-07T10:33:44;99829.84;;;12.16;72.60
17260;BME280;8746;49.230;9.220;2023-04-07T10:36:10;99827.97;;;12.18;73.50
17260;BME280;8746;49.230;9.220;2023-04-07T10:38:36;99826.34;;;11.58;72.70
17260;BME280;8746;49.230;9.220;2023-04-07T10:41:34;99825.13;;;12.03;73.40
17260;BME280;8746;49.230;9.220;2023-04-07T10:44:04;99833.22;;;11.62;72.76
17260;BME280;8746;49.230;9.220;2023-04-07T10:47:02;99831.94;;;11.71;72.43
17260;BME280;8746;49.230;9.220;2023-04-07T10:49:28;99828.09;;;11.78;73.09
17260;BME280;8746;49.230;9.220;2023-04-07T10:54:40;99830.72;;;11.59;72.86
17260;BME280;8746;49.230;9.220;2023-04-07T10:57:16;99836.59;;;11.66;72.02
17260;BME280;8746;49.230;9.220;2023-04-07T11:02:34;99823.81;;;11.76;69.94
17260;BME280;8746;49.230;9.220;2023-04-07T11:04:59;99826.72;;;11.69;70.74
17260;BME280;8746;49.230;9.220;2023-04-07T11:07:45;99829.22;;;11.73;68.85
17260;BME280;8746;49.230;9.220;2023-04-07T11:10:11;99828.50;;;11.88;70.27
17260;BME280;8746;49.230;9.220;2023-04-07T11:12:37;99814.22;;;12.29;70.04
17260;BME280;8746;49.230;9.220;2023-04-07T11:15:23;99817.34;;;12.90;66.95
17260;BME280;8746;49.230;9.220;2023-04-07T11:18:08;99807.22;;;12.98;65.01
17260;BME280;8746;49.230;9.220;2023-04-07T11:23:05;99806.50;;;13.61;64.89
17260;BME280;8746;49.230;9.220;2023-04-07T11:25:30;99804.72;;;13.46;63.12
17260;BME280;8746;49.230;9.220;2023-04-07T11:27:58;99807.94;;;14.15;62.68
17260;BME280;8746;49.230;9.220;2023-04-07T11:30:23;99802.47;;;14.18;58.76
17260;BME280;8746;49.230;9.220;2023-04-07T11:32:49;99799.53;;;15.56;57.74
17260;BME280;8746;49.230;9.220;2023-04-07T11:35:15;99800.38;;;16.13;54.51
17260;BME280;8746;49.230;9.220;2023-04-07T11:37:40;99797.72;;;16.53;55.09
17260;BME280;8746;49.230;9.220;2023-04-07T11:40:07;99793.75;;;16.99;51.83
17260;BME280;8746;49.230;9.220;2023-04-07T11:42:34;99800.88;;;17.37;51.17
17260;BME280;8746;49.230;9.220;2023-04-07T11:45:00;99803.06;;;16.66;52.82
17260;BME280;8746;49.230;9.220;2023-04-07T11:47:36;99814.81;;;14.95;55.39
17260;BME280;8746;49.230;9.220;2023-04-07T11:50:01;99813.81;;;14.36;58.53
17260;BME280;8746;49.230;9.220;2023-04-07T11:52:27;99817.59;;;14.16;58.83
17260;BME280;8746;49.230;9.220;2023-04-07T11:54:52;99818.59;;;13.34;59.04
17260;BME280;8746;49.230;9.220;2023-04-07T11:57:25;99818.22;;;12.73;60.62
17260;BME280;8746;49.230;9.220;2023-04-07T12:00:04;99816.66;;;12.86;63.34
17260;BME280;8746;49.230;9.220;2023-04-07T12:02:31;99823.06;;;13.15;62.97
17260;BME280;8746;49.230;9.220;2023-04-07T12:04:57;99813.69;;;13.26;62.88
17260;BME280;8746;49.230;9.220;2023-04-07T12:07:23;99812.38;;;13.17;62.27
17260;BME280;8746;49.230;9.220;2023-04-07T12:09:48;99820.28;;;13.01;63.05
17260;BME280;8746;49.230;9.220;2023-04-07T12:12:13;99818.94;;;13.10;63.72
17260;BME280;8746;49.230;9.220;2023-04-07T12:14:49;99821.94;;;12.69;62.89
17260;BME280;8746;49.230;9.220;2023-04-07T12:17:24;99811.47;;;13.18;61.75
17260;BME280;8746;49.230;9.220;2023-04-07T12:19:51;99821.72;;;13.24;61.80
17260;BME280;8746;49.230;9.220;2023-04-07T12:22:17;99814.91;;;13.03;61.35
17260;BME280;8746;49.230;9.220;2023-04-07T12:24:42;99813.13;;;13.86;61.53
17260;BME280;8746;49.230;9.220;2023-04-07T12:27:07;99815.88;;;14.15;58.59
17260;BME280;8746;49.230;9.220;2023-04-07T12:29:34;99803.97;;;14.69;57.55
17260;BME280;8746;49.230;9.220;2023-04-07T12:32:00;99814.19;;;14.30;58.95
17260;BME280;8746;49.230;9.220;2023-04-07T12:34:25;99805.34;;;14.30;57.99
17260;BME280;8746;49.230;9.220;2023-04-07T12:36:51;99807.91;;;14.31;58.17
17260;BME280;8746;49.230;9.220;2023-04-07T12:39:17;99816.97;;;13.31;60.68
17260;BME280;8746;49.230;9.220;2023-04-07T12:41:42;99817.69;;;12.83;60.63
17260;BME280;8746;49.230;9.220;2023-04-07T12:44:09;99819.53;;;12.81;62.26
17260;BME280;8746;49.230;9.220;2023-04-07T12:46:35;99823.03;;;12.64;61.18
17260;BME280;8746;49.230;9.220;2023-04-07T12:49:00;99814.00;;;12.69;60.60
17260;BME280;8746;49.230;9.220;2023-04-07T12:51:27;99812.09;;;13.06;59.76
17260;BME280;8746;49.230;9.220;2023-04-07T12:53:52;99810.72;;;13.32;58.53
17260;BME280;8746;49.230;9.220;2023-04-07T12:56:18;99813.94;;;13.39;56.13
17260;BME280;8746;49.230;9.220;2023-04-07T12:58:43;99805.75;;;13.59;54.38
17260;BME280;8746;49.230;9.220;2023-04-07T13:01:09;99798.53;;;14.25;54.48
17260;BME280;8746;49.230;9.220;2023-04-07T13:03:34;99808.22;;;13.94;56.87
17260;BME280;8746;49.230;9.220;2023-04-07T13:06:00;99807.97;;;13.99;57.24
17260;BME280;8746;49.230;9.220;2023-04-07T13:08:29;99804.38;;;14.47;54.90
17260;BME280;8746;49.230;9.220;2023-04-07T13:10:55;99799.47;;;14.85;52.56
17260;BME280;8746;49.230;9.220;2023-04-07T13:13:20;99801.66;;;14.63;53.10
17260;BME280;8746;49.230;9.220;2023-04-07T13:15:46;99800.13;;;14.58;53.49
17260;BME280;8746;49.230;9.220;2023-04-07T13:18:11;99799.72;;;14.50;53.54
17260;BME280;8746;49.230;9.220;2023-04-07T13:20:37;99794.31;;;14.82;53.70
17260;BME280;8746;49.230;9.220;2023-04-07T13:23:03;99790.69;;;14.69;55.32
17260;BME280;8746;49.230;9.220;2023-04-07T13:25:28;99798.16;;;14.32;56.03
17260;BME280;8746;49.230;9.220;2023-04-07T13:27:53;99798.88;;;14.19;54.96